createdAt,value
2023-09-27T00:02:12.953Z,101006.92
2023-09-27T00:06:16.284Z,101008.38
2023-09-27T00:10:18.936Z,101009.56
2023-09-27T00:14:21.477Z,101009.14
2023-09-27T00:18:23.851Z,101007.27
2023-09-27T00:22:25.894Z,101003.50
2023-09-27T00:26:27.943Z,101009.92
2023-09-27T00:30:30.309Z,101008.38
2023-09-27T00:34:32.499Z,101007.42
2023-09-27T00:38:35.277Z,101004.62
2023-09-27T00:42:38.000Z,101002.14
2023-09-27T00:46:41.006Z,100997.98
2023-09-27T00:50:43.134Z,100998.82
2023-09-27T00:54:45.570Z,100995.50
2023-09-27T00:58:49.115Z,100992.45
2023-09-27T01:02:51.525Z,100988.04
2023-09-27T01:06:53.725Z,100984.27
2023-09-27T01:10:55.934Z,100988.90
2023-09-27T01:14:57.995Z,100985.94
2023-09-27T01:19:03.660Z,100985.13
2023-09-27T01:23:06.866Z,100984.36
2023-09-27T01:27:10.751Z,100977.83
2023-09-27T01:31:14.616Z,100981.48
2023-09-27T01:35:16.810Z,100987.29
2023-09-27T01:39:19.195Z,100984.67
2023-09-27T01:43:21.703Z,100979.57
2023-09-27T01:47:24.164Z,100979.11
2023-09-27T01:51:26.263Z,100984.94
2023-09-27T01:55:28.345Z,100983.96
2023-09-27T01:59:30.417Z,100981.31
2023-09-27T02:03:32.523Z,100976.88
2023-09-27T02:07:41.938Z,100974.52
2023-09-27T02:11:44.252Z,100970.75
2023-09-27T02:15:46.651Z,100973.98
2023-09-27T02:19:48.687Z,100969.20
2023-09-27T02:23:50.713Z,100968.43
2023-09-27T02:27:52.805Z,100974.25
2023-09-27T02:31:54.829Z,100974.67
2023-09-27T02:35:56.805Z,100975.38
2023-09-27T02:39:59.393Z,100975.21
2023-09-27T02:44:03.427Z,100978.48
2023-09-27T02:48:05.917Z,100977.55
2023-09-27T02:52:07.991Z,100975.02
2023-09-27T02:56:10.107Z,100971.12
2023-09-27T03:00:12.431Z,100971.04
2023-09-27T03:04:16.640Z,100973.06
2023-09-27T03:08:19.358Z,100973.07
2023-09-27T03:12:21.359Z,100973.75
2023-09-27T03:16:24.389Z,100974.00
2023-09-27T03:20:27.615Z,100972.28
2023-09-27T03:24:30.814Z,100971.44
2023-09-27T03:28:32.876Z,100975.70
2023-09-27T03:32:35.492Z,100977.52
2023-09-27T03:36:38.535Z,100977.54
2023-09-27T03:40:41.156Z,100975.80
2023-09-27T03:44:43.171Z,100975.98
2023-09-27T03:48:45.369Z,100978.29
2023-09-27T03:52:47.471Z,100976.73
2023-09-27T03:56:49.459Z,100980.98
2023-09-27T04:00:51.486Z,100984.13
2023-09-27T04:04:53.521Z,100983.64
2023-09-27T04:08:55.828Z,100987.79
2023-09-27T04:12:58.056Z,100985.85
2023-09-27T04:17:02.312Z,100985.39
2023-09-27T04:21:09.095Z,100981.87
2023-09-27T04:25:15.498Z,100982.27
2023-09-27T04:29:17.586Z,100981.22
2023-09-27T04:33:19.969Z,100983.99
2023-09-27T04:37:22.482Z,100985.85
2023-09-27T04:41:24.883Z,100984.52
2023-09-27T04:45:27.066Z,100984.61
2023-09-27T04:49:29.189Z,100987.88
2023-09-27T04:53:35.353Z,100993.94
2023-09-27T04:57:37.958Z,100992.81
2023-09-27T05:01:39.993Z,100993.90
2023-09-27T05:05:42.127Z,100997.65
2023-09-27T05:09:44.416Z,101001.09
2023-09-27T05:13:47.421Z,100999.44
2023-09-27T05:17:49.501Z,101001.27
2023-09-27T05:21:51.541Z,101001.58
2023-09-27T05:25:53.572Z,101003.48
2023-09-27T05:29:55.922Z,101004.02
2023-09-27T05:33:57.956Z,101010.56
2023-09-27T05:38:00.279Z,101010.84
2023-09-27T05:42:02.649Z,101015.73
2023-09-27T05:46:04.648Z,101011.08
2023-09-27T05:50:14.491Z,101017.23
2023-09-27T05:54:20.157Z,101012.67
2023-09-27T05:58:22.162Z,101013.59
2023-09-27T06:02:31.597Z,101015.18
2023-09-27T06:06:34.893Z,101020.98
2023-09-27T06:10:36.916Z,101020.81
2023-09-27T06:14:44.696Z,101023.64
2023-09-27T06:18:46.702Z,101028.61
2023-09-27T06:22:54.964Z,101029.88
2023-09-27T06:26:56.866Z,101023.30
2023-09-27T06:31:00.269Z,101022.98
2023-09-27T06:35:11.253Z,101026.63
2023-09-27T06:39:13.946Z,101025.61
2023-09-27T06:43:16.127Z,101030.16
2023-09-27T06:47:18.142Z,101034.95
2023-09-27T06:51:20.714Z,101032.91
2023-09-27T06:55:23.339Z,101032.92
2023-09-27T06:59:26.376Z,101036.31
2023-09-27T07:03:30.434Z,101033.94
2023-09-27T07:07:32.595Z,101037.96
2023-09-27T07:11:35.085Z,101042.07
2023-09-27T07:15:37.856Z,101048.19
2023-09-27T07:19:40.446Z,101052.98
2023-09-27T07:23:42.955Z,101057.41
2023-09-27T07:27:47.069Z,101060.73
2023-09-27T07:31:49.094Z,101063.77
2023-09-27T07:35:52.844Z,101065.75
2023-09-27T07:39:54.836Z,101065.31
2023-09-27T07:43:56.911Z,101062.89
2023-09-27T07:47:59.408Z,101068.06
2023-09-27T07:52:01.477Z,101066.06
2023-09-27T07:56:03.812Z,101064.21
2023-09-27T08:00:09.540Z,101067.59
2023-09-27T08:04:15.940Z,101063.14
2023-09-27T08:08:18.124Z,101062.05
2023-09-27T08:12:21.242Z,101063.61
2023-09-27T08:16:23.294Z,101062.39
2023-09-27T08:20:25.465Z,101065.97
2023-09-27T08:24:27.854Z,101065.84
2023-09-27T08:28:34.269Z,101064.57
2023-09-27T08:32:36.456Z,101068.02
2023-09-27T08:36:38.587Z,101069.95
2023-09-27T08:40:43.283Z,101067.67
2023-09-27T08:44:46.363Z,101063.98
2023-09-27T08:48:49.444Z,101067.66
2023-09-27T08:52:52.279Z,101068.81
2023-09-27T08:56:56.561Z,101068.99
2023-09-27T09:00:58.775Z,101065.67
2023-09-27T09:05:00.769Z,101062.48
2023-09-27T09:09:12.694Z,101067.11
2023-09-27T09:13:17.954Z,101073.08
2023-09-27T09:17:20.456Z,101075.00
2023-09-27T09:21:25.888Z,101072.41
2023-09-27T09:25:29.079Z,101071.95
2023-09-27T09:29:49.167Z,101069.01
2023-09-27T09:34:04.164Z,101068.08
2023-09-27T09:38:06.222Z,101065.31
2023-09-27T09:42:09.406Z,101067.16
2023-09-27T09:46:14.040Z,101070.19
2023-09-27T09:50:19.389Z,101069.13
2023-09-27T09:59:04.562Z,101070.15
2023-09-27T10:03:16.370Z,101070.84
2023-09-27T10:07:18.732Z,101070.49
2023-09-27T10:11:23.987Z,101065.55
2023-09-27T10:15:27.616Z,101067.75
2023-09-27T10:19:30.143Z,101066.06
2023-09-27T10:23:45.017Z,101064.10
2023-09-27T10:28:02.361Z,101062.02
2023-09-27T10:32:04.408Z,101051.88
2023-09-27T10:36:27.376Z,101051.80
2023-09-27T10:40:41.729Z,101047.97
2023-09-27T10:44:44.423Z,101045.77
2023-09-27T10:48:58.797Z,101045.66
2023-09-27T10:53:00.844Z,101039.39
2023-09-27T10:57:03.335Z,101039.14
2023-09-27T11:01:05.503Z,101037.31
2023-09-27T11:05:08.939Z,101035.04
2023-09-27T11:09:12.949Z,101031.81
2023-09-27T11:13:15.124Z,101027.85
2023-09-27T11:17:24.468Z,101026.09
2023-09-27T11:21:27.650Z,101024.31
2023-09-27T11:25:31.542Z,101021.47
2023-09-27T11:29:33.596Z,101018.86
2023-09-27T11:33:35.578Z,101012.91
2023-09-27T11:37:39.991Z,101014.05
2023-09-27T11:41:44.465Z,101012.66
2023-09-27T11:45:50.880Z,101012.48
2023-09-27T11:49:52.928Z,101009.10
2023-09-27T11:53:55.193Z,101009.42
2023-09-27T11:57:58.856Z,101005.27
2023-09-27T12:02:09.225Z,101002.92
2023-09-27T12:06:15.579Z,101002.39
2023-09-27T12:10:18.092Z,100998.33
2023-09-27T12:14:20.243Z,100996.50
2023-09-27T12:18:23.738Z,100990.20
2023-09-27T12:22:25.783Z,100985.85
2023-09-27T12:26:27.886Z,100981.27
2023-09-27T12:30:30.084Z,100981.33
2023-09-27T12:34:32.044Z,100977.88
2023-09-27T12:38:34.114Z,100977.32
2023-09-27T12:42:36.550Z,100975.69
2023-09-27T12:46:39.721Z,100976.29
2023-09-27T12:50:42.649Z,100974.59
2023-09-27T12:54:46.226Z,100976.10
2023-09-27T12:58:48.329Z,100971.08
2023-09-27T13:02:50.919Z,100967.80
2023-09-27T13:06:53.048Z,100963.15
2023-09-27T13:10:55.165Z,100955.38
2023-09-27T13:14:57.689Z,100946.97
2023-09-27T13:19:00.129Z,100944.21
2023-09-27T13:23:02.245Z,100939.76
2023-09-27T13:27:04.720Z,100936.08
2023-09-27T13:31:06.744Z,100931.30
2023-09-27T13:35:08.984Z,100927.21
2023-09-27T13:39:25.810Z,100926.70
2023-09-27T13:43:29.302Z,100921.75
2023-09-27T13:47:31.643Z,100919.88
2023-09-27T13:51:36.660Z,100916.17
2023-09-27T13:55:39.011Z,100916.73
2023-09-27T13:59:41.058Z,100916.64
2023-09-27T14:03:43.135Z,100911.79
2023-09-27T14:07:45.418Z,100905.45
2023-09-27T14:11:47.406Z,100905.66
2023-09-27T14:15:49.481Z,100904.29
2023-09-27T14:19:51.777Z,100902.64
2023-09-27T14:23:54.598Z,100905.13
2023-09-27T14:27:58.288Z,100908.27
2023-09-27T14:32:00.557Z,100899.23
2023-09-27T14:36:05.844Z,100894.58
2023-09-27T14:40:10.343Z,100887.13
2023-09-27T14:44:13.018Z,100883.36
2023-09-27T14:48:14.959Z,100883.65
2023-09-27T14:52:16.962Z,100884.84
2023-09-27T14:56:19.131Z,100889.02
2023-09-27T15:00:23.291Z,100891.95
2023-09-27T15:04:26.215Z,100884.59
2023-09-27T15:08:28.641Z,100882.36
2023-09-27T15:12:30.530Z,100878.77
2023-09-27T15:16:34.692Z,100880.04
2023-09-27T15:20:36.615Z,100878.15
2023-09-27T15:24:38.865Z,100872.34
2023-09-27T15:28:41.458Z,100878.42
2023-09-27T15:32:43.484Z,100879.34
2023-09-27T15:36:45.673Z,100878.41
2023-09-27T15:40:47.659Z,100880.90
2023-09-27T15:44:50.730Z,100885.16
2023-09-27T15:48:53.229Z,100883.98
2023-09-27T15:52:55.332Z,100883.94
2023-09-27T15:56:57.490Z,100882.63
2023-09-27T16:01:01.002Z,100885.58
2023-09-27T16:05:04.709Z,100883.77
2023-09-27T16:09:08.372Z,100884.92
2023-09-27T16:13:10.532Z,100888.06
2023-09-27T16:17:12.670Z,100890.59
2023-09-27T16:27:08.942Z,100878.27
2023-09-27T16:31:33.117Z,100876.41
2023-09-27T16:35:39.918Z,100878.13
2023-09-27T16:39:42.423Z,100879.51
2023-09-27T16:43:44.746Z,100877.84
2023-09-27T16:47:52.072Z,100876.85
2023-09-27T16:51:54.412Z,100881.86
2023-09-27T16:55:56.714Z,100884.75
2023-09-27T16:59:58.973Z,100882.75
2023-09-27T17:04:01.315Z,100882.88
2023-09-27T17:08:04.295Z,100881.61
2023-09-27T17:12:06.879Z,100880.42
2023-09-27T17:16:09.082Z,100874.98
2023-09-27T17:20:11.559Z,100873.08
2023-09-27T17:24:14.264Z,100873.44
2023-09-27T17:28:16.437Z,100871.13
2023-09-27T17:32:18.831Z,100871.77
2023-09-27T17:36:21.263Z,100871.26
2023-09-27T17:40:23.637Z,100873.46
2023-09-27T17:44:25.918Z,100870.77
2023-09-27T17:48:28.077Z,100869.56
2023-09-27T17:52:30.357Z,100867.41
2023-09-27T17:56:32.921Z,100871.48
2023-09-27T18:00:35.085Z,100871.70
2023-09-27T18:04:39.346Z,100873.11
2023-09-27T18:08:41.808Z,100873.92
2023-09-27T18:12:43.850Z,100874.33
2023-09-27T18:16:46.506Z,100871.09
2023-09-27T18:20:49.579Z,100876.31
2023-09-27T18:24:51.759Z,100875.85
2023-09-27T18:28:55.041Z,100881.56
2023-09-27T18:32:57.154Z,100880.47
2023-09-27T18:36:59.226Z,100874.96
2023-09-27T18:41:01.358Z,100877.80
2023-09-27T18:45:03.674Z,100883.41
2023-09-27T18:49:05.597Z,100883.64
2023-09-27T18:53:08.347Z,100888.52
2023-09-27T18:57:10.972Z,100891.55
2023-09-27T19:01:13.952Z,100894.25
2023-09-27T19:05:16.179Z,100893.83
2023-09-27T19:09:19.291Z,100889.02
2023-09-27T19:13:21.345Z,100890.84
2023-09-27T19:17:23.585Z,100894.02
2023-09-27T19:21:25.589Z,100893.30
2023-09-27T19:25:27.734Z,100893.97
2023-09-27T19:29:29.813Z,100886.98
2023-09-27T19:33:31.955Z,100888.34
2023-09-27T19:37:34.015Z,100891.90
2023-09-27T19:41:36.056Z,100891.33
2023-09-27T19:45:38.102Z,100889.47
2023-09-27T19:49:40.484Z,100890.05
2023-09-27T19:53:42.676Z,100890.16
2023-09-27T19:57:45.384Z,100889.44
2023-09-27T20:01:48.103Z,100883.30
2023-09-27T20:05:50.211Z,100879.80
2023-09-27T20:09:52.390Z,100880.55
2023-09-27T20:13:54.628Z,100880.95
2023-09-27T20:17:56.860Z,100878.91
2023-09-27T20:21:58.902Z,100876.89
2023-09-27T20:26:02.256Z,100876.40
2023-09-27T20:30:04.669Z,100875.27
2023-09-27T20:34:06.695Z,100876.70
2023-09-27T20:38:09.838Z,100876.84
2023-09-27T20:42:13.379Z,100879.61
2023-09-27T20:46:16.714Z,100880.39
2023-09-27T20:50:18.790Z,100882.92
2023-09-27T20:54:21.144Z,100883.11
2023-09-27T20:58:23.232Z,100880.93
2023-09-27T21:02:25.242Z,100879.38
2023-09-27T21:06:28.674Z,100879.27
2023-09-27T21:10:31.128Z,100876.80
2023-09-27T21:14:37.745Z,100877.13
2023-09-27T21:18:39.701Z,100874.86
2023-09-27T21:22:41.709Z,100870.96
2023-09-27T21:26:43.722Z,100869.05
2023-09-27T21:30:45.868Z,100866.77
2023-09-27T21:34:49.221Z,100868.54
2023-09-27T21:38:51.401Z,100867.42
2023-09-27T21:42:53.526Z,100864.54
2023-09-27T21:46:55.539Z,100861.29
2023-09-27T21:50:57.706Z,100862.40
2023-09-27T21:54:59.708Z,100862.03
2023-09-27T21:59:02.583Z,100862.04
2023-09-27T22:03:05.339Z,100861.05
2023-09-27T22:07:07.554Z,100859.65
2023-09-27T22:11:09.602Z,100863.00
2023-09-27T22:15:11.671Z,100869.06
2023-09-27T22:19:13.626Z,100871.08
2023-09-27T22:23:34.440Z,100870.25
2023-09-27T22:27:36.759Z,100871.05
2023-09-27T22:31:39.735Z,100872.71
2023-09-27T22:35:48.748Z,100874.13
2023-09-27T22:39:52.993Z,100872.77
2023-09-27T22:44:01.307Z,100866.88
2023-09-27T22:48:04.170Z,100865.64
2023-09-27T22:52:09.607Z,100863.98
2023-09-27T22:56:11.790Z,100861.91
2023-09-27T23:00:20.687Z,100863.27
2023-09-27T23:04:23.477Z,100858.83
2023-09-27T23:08:28.317Z,100856.55
2023-09-27T23:12:36.557Z,100856.13
2023-09-27T23:16:48.250Z,100859.88
2023-09-27T23:20:50.281Z,100860.51
2023-09-27T23:25:12.225Z,100860.46
2023-09-27T23:29:34.325Z,100859.89
2023-09-27T23:33:44.276Z,100856.60
2023-09-27T23:37:47.007Z,100860.39
2023-09-27T23:42:02.300Z,100859.27
2023-09-27T23:46:06.703Z,100854.45
2023-09-27T23:50:11.734Z,100853.88
2023-09-27T23:54:14.341Z,100851.48
2023-09-27T23:58:16.279Z,100855.05
